createdAt,value
2019-02-10T00:00:44.572Z,420.54
2019-02-10T00:01:37.488Z,423.16
2019-02-10T00:02:37.472Z,425.37
2019-02-10T00:03:37.508Z,422.76
2019-02-10T00:04:37.456Z,423.99
2019-02-10T00:05:37.429Z,424.15
2019-02-10T00:06:37.430Z,422.40
2019-02-10T00:07:37.479Z,424.17
2019-02-10T00:08:37.416Z,421.88
2019-02-10T00:09:37.502Z,422.47
2019-02-10T00:10:37.377Z,421.96
2019-02-10T00:11:37.368Z,423.93
2019-02-10T00:12:37.351Z,420.35
2019-02-10T00:13:37.371Z,420.30
2019-02-10T00:14:37.353Z,424.45
2019-02-10T00:15:37.341Z,421.87
2019-02-10T00:16:37.292Z,423.40
2019-02-10T00:17:37.304Z,420.37
2019-02-10T00:18:37.317Z,424.83
2019-02-10T00:19:37.405Z,423.21
2019-02-10T00:20:37.285Z,424.09
2019-02-10T00:21:37.276Z,422.69
2019-02-10T00:22:37.236Z,422.96
2019-02-10T00:23:37.274Z,423.90
2019-02-10T00:24:37.229Z,424.29
2019-02-10T00:25:37.243Z,420.80
2019-02-10T00:26:37.219Z,423.41
2019-02-10T00:27:37.208Z,421.23
2019-02-10T00:28:37.220Z,421.32
2019-02-10T00:29:37.174Z,423.83
2019-02-10T00:30:37.175Z,420.24
2019-02-10T00:31:37.165Z,422.08
2019-02-10T00:32:45.189Z,422.12
2019-02-10T00:34:53.771Z,420.68
2019-02-10T00:35:53.779Z,421.65
2019-02-10T00:36:53.715Z,420.46
2019-02-10T00:37:53.779Z,423.65
2019-02-10T00:38:53.726Z,419.43
2019-02-10T00:40:01.782Z,419.42
2019-02-10T00:41:01.787Z,423.59
2019-02-10T00:41:53.664Z,422.80
2019-02-10T00:42:53.655Z,422.37
2019-02-10T00:43:53.665Z,421.60
2019-02-10T00:44:53.628Z,421.23
2019-02-10T00:45:53.581Z,422.61
2019-02-10T00:46:53.596Z,424.13
2019-02-10T00:47:53.574Z,421.52
2019-02-10T00:48:53.592Z,422.07
2019-02-10T00:49:53.557Z,422.63
2019-02-10T00:50:53.567Z,421.55
2019-02-10T00:51:53.552Z,420.73
2019-02-10T00:52:53.518Z,421.55
2019-02-10T00:53:53.525Z,420.90
2019-02-10T00:54:53.521Z,421.11
2019-02-10T00:56:01.577Z,421.13
2019-02-10T00:56:53.528Z,423.64
2019-02-10T00:57:53.559Z,421.82
2019-02-10T00:58:53.466Z,423.33
2019-02-10T00:59:53.441Z,422.24
2019-02-10T01:00:53.461Z,423.67
2019-02-10T01:01:53.437Z,423.33
2019-02-10T01:02:53.430Z,421.98
2019-02-10T01:03:53.437Z,422.35
2019-02-10T01:04:53.398Z,422.50
2019-02-10T01:05:53.377Z,422.86
2019-02-10T01:06:53.392Z,421.27
2019-02-10T01:07:53.378Z,422.56
2019-02-10T01:08:53.387Z,419.71
2019-02-10T01:09:53.327Z,420.24
2019-02-10T01:10:53.324Z,419.62
2019-02-10T01:12:01.220Z,421.64
2019-02-10T01:13:00.452Z,420.29
2019-02-10T01:14:00.375Z,422.16
2019-02-10T01:15:00.353Z,422.33
2019-02-10T01:16:01.371Z,421.49
2019-02-10T01:17:01.309Z,423.02
2019-02-10T01:17:53.260Z,421.44
2019-02-10T01:18:53.284Z,421.02
2019-02-10T01:19:53.275Z,422.95
2019-02-10T01:20:53.207Z,422.13
2019-02-10T01:21:53.193Z,422.78
2019-02-10T01:22:53.257Z,421.68
2019-02-10T01:24:00.454Z,420.89
2019-02-10T01:25:00.351Z,420.07
2019-02-10T01:26:00.329Z,420.90
2019-02-10T01:27:00.230Z,420.43
2019-02-10T01:28:00.189Z,421.17
2019-02-10T01:29:00.278Z,422.35
2019-02-10T01:30:01.961Z,421.99
2019-02-10T01:31:01.184Z,421.08
2019-02-10T01:32:01.152Z,422.33
2019-02-10T01:33:01.143Z,422.02
2019-02-10T01:34:01.161Z,422.99
2019-02-10T01:35:01.055Z,421.98
2019-02-10T01:36:00.136Z,421.66
2019-02-10T01:37:00.125Z,421.42
2019-02-10T01:38:01.087Z,422.09
2019-02-10T01:38:53.077Z,422.22
2019-02-10T01:39:54.259Z,421.94
2019-02-10T01:40:53.056Z,422.24
2019-02-10T01:41:53.003Z,421.08
2019-02-10T01:42:53.008Z,421.75
2019-02-10T01:43:52.989Z,421.33
2019-02-10T01:44:52.983Z,420.75
2019-02-10T01:46:01.098Z,421.59
2019-02-10T01:47:01.118Z,421.27
2019-02-10T01:48:00.037Z,420.51
2019-02-10T01:49:00.066Z,421.55
2019-02-10T01:50:00.756Z,423.14
2019-02-10T01:50:59.981Z,422.37
2019-02-10T01:52:00.953Z,420.32
2019-02-10T01:53:00.024Z,421.20
2019-02-10T01:54:01.051Z,420.99
2019-02-10T01:55:00.913Z,421.74
2019-02-10T01:55:52.885Z,421.88
2019-02-10T01:56:52.830Z,421.79
2019-02-10T01:57:52.825Z,421.47
2019-02-10T01:58:52.839Z,422.11
2019-02-10T01:59:52.814Z,419.23
2019-02-10T02:00:52.810Z,421.23
2019-02-10T02:01:52.796Z,420.71
2019-02-10T02:02:52.776Z,421.23
2019-02-10T02:03:52.781Z,421.60
2019-02-10T02:04:52.750Z,422.77
2019-02-10T02:05:52.732Z,420.48
2019-02-10T02:06:57.720Z,420.37
2019-02-10T02:07:53.719Z,420.02
2019-02-10T02:08:52.888Z,423.02
2019-02-10T02:09:52.686Z,422.78
2019-02-10T02:10:52.688Z,422.00
2019-02-10T02:11:52.692Z,423.47
2019-02-10T02:12:52.686Z,422.86
2019-02-10T02:13:52.668Z,420.16
2019-02-10T02:14:52.655Z,423.39
2019-02-10T02:15:52.629Z,420.08
2019-02-10T02:16:52.633Z,421.15
2019-02-10T02:17:52.626Z,423.25
2019-02-10T02:18:52.626Z,423.35
2019-02-10T02:19:52.616Z,421.81
2019-02-10T02:20:52.576Z,422.25
2019-02-10T02:21:52.576Z,422.12
2019-02-10T02:22:52.566Z,422.02
2019-02-10T02:23:52.563Z,420.90
2019-02-10T02:24:52.569Z,421.11
2019-02-10T02:25:52.552Z,423.08
2019-02-10T02:26:52.532Z,421.48
2019-02-10T02:27:52.506Z,421.46
2019-02-10T02:28:52.497Z,421.35
2019-02-10T02:29:52.510Z,419.62
2019-02-10T02:30:52.494Z,421.34
2019-02-10T02:31:52.464Z,422.99
2019-02-10T02:32:52.459Z,419.34
2019-02-10T02:33:52.444Z,420.48
2019-02-10T02:34:52.451Z,420.27
2019-02-10T02:35:52.462Z,420.74
2019-02-10T02:36:52.441Z,422.13
2019-02-10T02:37:52.396Z,419.17
2019-02-10T02:38:52.399Z,420.95
2019-02-10T02:39:52.399Z,422.62
2019-02-10T02:40:52.415Z,423.44
2019-02-10T02:41:52.393Z,420.23
2019-02-10T02:42:52.348Z,421.98
2019-02-10T02:43:52.323Z,423.20
2019-02-10T02:44:52.335Z,421.58
2019-02-10T02:45:52.352Z,420.94
2019-02-10T02:46:52.309Z,422.63
2019-02-10T02:47:52.302Z,420.18
2019-02-10T02:48:52.305Z,421.21
2019-02-10T02:49:52.279Z,423.70
2019-02-10T02:50:52.256Z,422.84
2019-02-10T02:51:52.254Z,421.75
2019-02-10T02:52:52.253Z,424.14
2019-02-10T02:53:52.229Z,422.01
2019-02-10T02:54:52.233Z,423.00
2019-02-10T02:55:52.201Z,419.32
2019-02-10T02:56:52.196Z,420.71
2019-02-10T02:57:52.198Z,422.46
2019-02-10T02:58:52.176Z,423.15
2019-02-10T02:59:52.190Z,421.43
2019-02-10T03:00:52.157Z,421.22
2019-02-10T03:01:52.147Z,422.95
2019-02-10T03:02:52.150Z,421.28
2019-02-10T03:03:52.142Z,420.76
2019-02-10T03:04:52.137Z,421.65
2019-02-10T03:05:52.101Z,421.09
2019-02-10T03:06:52.094Z,423.19
2019-02-10T03:07:52.089Z,421.93
2019-02-10T03:08:52.095Z,422.07
2019-02-10T03:09:52.080Z,421.20
2019-02-10T03:10:52.047Z,422.65
2019-02-10T03:11:52.037Z,420.96
2019-02-10T03:12:52.047Z,421.90
2019-02-10T03:13:52.017Z,422.26
2019-02-10T03:14:52.040Z,421.46
2019-02-10T03:15:52.021Z,423.30
2019-02-10T03:16:51.983Z,423.27
2019-02-10T03:17:51.981Z,421.29
2019-02-10T03:18:53.215Z,421.32
2019-02-10T03:19:51.971Z,422.94
2019-02-10T03:20:51.944Z,423.64
2019-02-10T03:21:51.929Z,422.29
2019-02-10T03:22:51.939Z,422.71
2019-02-10T03:23:51.925Z,422.84
2019-02-10T03:24:51.935Z,421.53
2019-02-10T03:25:51.888Z,423.78
2019-02-10T03:26:51.890Z,423.32
2019-02-10T03:27:51.876Z,421.90
2019-02-10T03:28:51.866Z,422.33
2019-02-10T03:29:51.888Z,422.91
2019-02-10T03:30:51.823Z,423.04
2019-02-10T03:31:51.845Z,421.70
2019-02-10T03:32:51.827Z,420.76
2019-02-10T03:33:51.820Z,422.83
2019-02-10T03:34:51.806Z,422.47
2019-02-10T03:35:58.869Z,421.08
2019-02-10T03:37:00.417Z,420.65
2019-02-10T03:37:58.910Z,422.32
2019-02-10T03:38:59.510Z,420.45
2019-02-10T03:39:51.905Z,421.04
2019-02-10T03:40:51.749Z,421.53
2019-02-10T03:41:51.716Z,422.05
2019-02-10T03:42:51.699Z,420.20
2019-02-10T03:43:51.701Z,421.20
2019-02-10T03:44:51.700Z,422.76
2019-02-10T03:45:51.662Z,420.44
2019-02-10T03:46:51.661Z,420.39
2019-02-10T03:47:51.642Z,421.60
2019-02-10T03:48:51.635Z,421.02
2019-02-10T03:49:58.768Z,422.25
2019-02-10T03:50:51.730Z,421.13
2019-02-10T03:51:51.609Z,422.48
2019-02-10T03:52:51.597Z,419.76
2019-02-10T03:53:51.580Z,420.57
2019-02-10T03:54:51.584Z,421.59
2019-02-10T03:55:51.558Z,421.96
2019-02-10T03:56:51.565Z,422.08
2019-02-10T03:57:51.547Z,422.58
2019-02-10T03:58:51.575Z,420.65
2019-02-10T03:59:51.528Z,421.18
2019-02-10T04:00:51.505Z,420.10
2019-02-10T04:01:51.505Z,422.75
2019-02-10T04:02:51.497Z,422.50
2019-02-10T04:03:51.484Z,421.04
2019-02-10T04:04:51.475Z,423.11
2019-02-10T04:05:51.464Z,422.35
2019-02-10T04:06:51.457Z,421.84
2019-02-10T04:07:51.451Z,420.21
2019-02-10T04:08:51.414Z,420.88
2019-02-10T04:09:59.554Z,420.87
2019-02-10T04:10:59.046Z,421.01
2019-02-10T04:12:00.081Z,421.70
2019-02-10T04:12:58.489Z,420.34
2019-02-10T04:15:03.038Z,418.29
2019-02-10T04:16:02.981Z,424.21
2019-02-10T04:17:02.987Z,422.41
2019-02-10T04:18:02.965Z,421.49
2019-02-10T04:19:03.005Z,423.06
2019-02-10T04:20:02.992Z,421.22
2019-02-10T04:21:02.970Z,422.52
2019-02-10T04:22:02.914Z,423.15
2019-02-10T04:23:02.923Z,419.35
2019-02-10T04:24:02.899Z,421.86
2019-02-10T04:25:02.888Z,420.45
2019-02-10T04:26:02.888Z,420.57
2019-02-10T04:27:02.867Z,422.09
2019-02-10T04:28:02.847Z,421.14
2019-02-10T04:29:02.855Z,421.25
2019-02-10T04:30:02.854Z,422.42
2019-02-10T04:31:02.815Z,421.99
2019-02-10T04:32:02.789Z,423.30
2019-02-10T04:33:02.789Z,422.89
2019-02-10T04:34:02.802Z,420.82
2019-02-10T04:35:02.798Z,421.97
2019-02-10T04:36:02.772Z,421.40
2019-02-10T04:37:02.792Z,422.51
2019-02-10T04:38:02.764Z,421.38
2019-02-10T04:39:02.764Z,420.02
2019-02-10T04:40:02.744Z,420.98
2019-02-10T04:41:02.759Z,420.60
2019-02-10T04:42:02.706Z,422.75
2019-02-10T04:43:02.708Z,420.91
2019-02-10T04:44:02.688Z,420.88
2019-02-10T04:45:02.682Z,421.21
2019-02-10T04:46:02.674Z,421.10
2019-02-10T04:47:02.658Z,421.11
2019-02-10T04:48:02.642Z,421.87
2019-02-10T04:49:02.642Z,423.21
2019-02-10T04:50:02.613Z,421.10
2019-02-10T04:51:02.617Z,422.51
2019-02-10T04:52:02.599Z,422.98
2019-02-10T04:53:02.578Z,419.97
2019-02-10T04:54:02.562Z,421.49
2019-02-10T04:55:02.574Z,421.43
2019-02-10T04:56:02.571Z,421.53
2019-02-10T04:57:02.558Z,422.83
2019-02-10T04:58:02.558Z,422.95
2019-02-10T04:59:02.513Z,420.68
2019-02-10T05:00:02.517Z,419.97
2019-02-10T05:01:02.518Z,421.00
2019-02-10T05:02:02.476Z,421.13
2019-02-10T05:03:02.476Z,421.08
2019-02-10T05:04:02.482Z,422.33
2019-02-10T05:05:02.458Z,420.25
2019-02-10T05:06:02.474Z,422.12
2019-02-10T05:07:02.450Z,420.12
2019-02-10T05:08:02.428Z,421.66
2019-02-10T05:09:02.432Z,421.85
2019-02-10T05:10:10.426Z,421.90
2019-02-10T05:11:09.513Z,421.38
2019-02-10T05:12:10.472Z,422.21
2019-02-10T05:13:10.438Z,422.06
2019-02-10T05:14:09.408Z,423.23
2019-02-10T05:15:09.435Z,422.77
2019-02-10T05:16:09.425Z,421.59
2019-02-10T05:17:11.054Z,421.67
2019-02-10T05:21:34.201Z,417.58
2019-02-10T05:22:41.209Z,420.05
2019-02-10T05:23:43.190Z,420.50
2019-02-10T05:24:43.168Z,418.92
2019-02-10T05:25:41.215Z,422.41
2019-02-10T05:26:34.126Z,420.56
2019-02-10T05:27:34.168Z,422.99
2019-02-10T05:28:34.098Z,420.96
2019-02-10T05:29:34.094Z,421.38
2019-02-10T05:30:34.102Z,419.55
2019-02-10T05:31:34.056Z,421.53
2019-02-10T05:32:34.048Z,422.59
2019-02-10T05:33:34.037Z,422.34
2019-02-10T05:34:34.034Z,421.31
2019-02-10T05:35:34.026Z,421.67
2019-02-10T05:36:34.001Z,419.88
2019-02-10T05:37:33.988Z,421.07
2019-02-10T05:38:33.989Z,419.69
2019-02-10T05:39:33.971Z,423.02
2019-02-10T05:40:34.018Z,421.16
2019-02-10T05:41:33.951Z,422.52
2019-02-10T05:42:33.958Z,422.61
2019-02-10T05:43:33.934Z,422.28
2019-02-10T05:44:33.945Z,421.41
2019-02-10T05:45:41.015Z,421.22
2019-02-10T05:46:40.992Z,422.78
2019-02-10T05:47:33.916Z,421.65
2019-02-10T05:48:33.925Z,421.04
2019-02-10T05:49:33.880Z,420.33
2019-02-10T05:50:33.836Z,420.95
2019-02-10T05:51:33.858Z,422.56
2019-02-10T05:52:33.821Z,422.65
2019-02-10T05:53:33.815Z,422.12
2019-02-10T05:54:33.816Z,422.49
2019-02-10T05:55:33.813Z,419.04
2019-02-10T05:56:33.820Z,420.85
2019-02-10T05:57:33.789Z,421.78
2019-02-10T05:58:33.764Z,420.44
2019-02-10T05:59:33.755Z,421.79
2019-02-10T06:00:33.756Z,420.69
2019-02-10T06:01:33.761Z,421.89
2019-02-10T06:02:33.732Z,422.09
2019-02-10T06:03:43.215Z,421.16
2019-02-10T06:04:40.801Z,419.27
2019-02-10T06:05:42.757Z,422.03
2019-02-10T06:06:40.771Z,420.88
2019-02-10T06:07:41.707Z,421.91
2019-02-10T06:08:42.306Z,422.78
2019-02-10T06:09:40.706Z,422.45
2019-02-10T06:10:41.803Z,421.33
2019-02-10T06:11:41.727Z,421.42
2019-02-10T06:12:33.644Z,421.14
2019-02-10T06:13:33.616Z,420.82
2019-02-10T06:14:33.607Z,421.13
2019-02-10T06:15:33.578Z,422.55
2019-02-10T06:16:33.589Z,422.31
2019-02-10T06:17:33.585Z,420.77
2019-02-10T06:18:33.558Z,422.77
2019-02-10T06:19:33.562Z,421.95
2019-02-10T06:20:33.559Z,421.15
2019-02-10T06:21:33.573Z,422.14
2019-02-10T06:22:33.527Z,421.26
2019-02-10T06:23:33.498Z,421.00
2019-02-10T06:24:33.526Z,422.28
2019-02-10T06:25:33.492Z,420.45
2019-02-10T06:26:33.478Z,421.92
2019-02-10T06:27:33.449Z,421.46
2019-02-10T06:28:33.449Z,422.45
2019-02-10T06:29:33.441Z,420.59
2019-02-10T06:30:33.469Z,422.26
2019-02-10T06:31:33.429Z,420.62
2019-02-10T06:32:41.457Z,420.68
2019-02-10T06:33:41.495Z,420.61
2019-02-10T06:34:40.455Z,420.08
2019-02-10T06:35:40.433Z,419.12
2019-02-10T06:36:40.563Z,422.00
2019-02-10T06:37:33.377Z,419.27
2019-02-10T06:38:33.410Z,422.06
2019-02-10T06:39:33.323Z,421.92
2019-02-10T06:40:33.375Z,421.55
2019-02-10T06:41:33.357Z,422.29
2019-02-10T06:42:33.317Z,421.69
2019-02-10T06:43:33.289Z,420.42
2019-02-10T06:44:33.270Z,421.55
2019-02-10T06:45:33.260Z,421.27
2019-02-10T06:46:33.272Z,420.59
2019-02-10T06:47:33.253Z,422.39
2019-02-10T06:48:33.259Z,421.27
2019-02-10T06:49:33.224Z,420.97
2019-02-10T06:50:33.217Z,420.43
2019-02-10T06:51:33.220Z,421.48
2019-02-10T06:52:33.206Z,420.91
2019-02-10T06:53:34.757Z,421.66
2019-02-10T06:54:33.199Z,421.91
2019-02-10T06:55:33.157Z,421.20
2019-02-10T06:56:33.167Z,421.83
2019-02-10T06:57:33.140Z,421.45
2019-02-10T06:58:33.128Z,421.23
2019-02-10T06:59:33.131Z,421.73
2019-02-10T07:00:33.116Z,423.05
2019-02-10T07:01:33.130Z,420.36
2019-02-10T07:02:33.069Z,422.33
2019-02-10T07:03:33.086Z,421.76
2019-02-10T07:04:33.068Z,422.48
2019-02-10T07:05:33.071Z,421.17
2019-02-10T07:06:33.063Z,422.42
2019-02-10T07:07:33.044Z,422.14
2019-02-10T07:08:33.016Z,423.07
2019-02-10T07:09:33.033Z,420.81
2019-02-10T07:10:33.031Z,420.79
2019-02-10T07:11:33.006Z,422.48
2019-02-10T07:12:33.980Z,421.30
2019-02-10T07:13:32.987Z,421.67
2019-02-10T07:14:32.974Z,421.60
2019-02-10T07:15:32.939Z,421.80
2019-02-10T07:16:32.976Z,420.46
2019-02-10T07:17:32.928Z,422.43
2019-02-10T07:18:32.931Z,421.99
2019-02-10T07:19:32.910Z,421.17
2019-02-10T07:20:32.920Z,421.78
2019-02-10T07:21:32.908Z,421.38
2019-02-10T07:22:32.878Z,421.86
2019-02-10T07:23:32.843Z,421.16
2019-02-10T07:24:32.868Z,421.24
2019-02-10T07:25:32.837Z,421.98
2019-02-10T07:26:32.864Z,422.66
2019-02-10T07:27:32.808Z,422.41
2019-02-10T07:28:32.801Z,421.75
2019-02-10T07:29:32.789Z,422.06
2019-02-10T07:30:32.786Z,421.74
2019-02-10T07:31:32.794Z,421.99
2019-02-10T07:32:32.766Z,420.67
2019-02-10T07:33:32.736Z,421.22
2019-02-10T07:34:32.721Z,422.38
2019-02-10T07:35:32.727Z,421.28
2019-02-10T07:36:32.720Z,422.28
2019-02-10T07:37:32.709Z,421.40
2019-02-10T07:38:38.493Z,420.50
2019-02-10T07:39:33.690Z,421.41
2019-02-10T07:40:32.680Z,421.52
2019-02-10T07:41:39.789Z,421.89
2019-02-10T07:42:32.750Z,421.29
2019-02-10T07:43:32.634Z,421.82
2019-02-10T07:44:32.685Z,422.60
2019-02-10T07:45:32.612Z,422.35
2019-02-10T07:46:32.617Z,421.80
2019-02-10T07:47:32.611Z,422.65
2019-02-10T07:48:32.636Z,421.60
2019-02-10T07:49:32.746Z,422.72
2019-02-10T07:50:32.676Z,422.25
2019-02-10T07:51:32.767Z,421.94
2019-02-10T07:52:32.604Z,421.87
2019-02-10T07:53:32.604Z,421.31
2019-02-10T07:54:32.545Z,421.50
2019-02-10T07:55:32.522Z,421.70
2019-02-10T07:56:32.491Z,422.15
2019-02-10T07:57:32.507Z,421.89
2019-02-10T07:58:32.484Z,422.40
2019-02-10T07:59:32.468Z,422.55
2019-02-10T08:00:32.475Z,421.79
2019-02-10T08:01:32.456Z,422.25
2019-02-10T08:02:32.445Z,422.32
2019-02-10T08:03:32.435Z,421.44
2019-02-10T08:04:32.431Z,422.13
2019-02-10T08:05:32.416Z,423.13
2019-02-10T08:06:32.396Z,421.71
2019-02-10T08:07:32.410Z,421.40
2019-02-10T08:08:32.383Z,421.58
2019-02-10T08:09:32.365Z,421.01
2019-02-10T08:10:32.343Z,420.99
2019-02-10T08:11:32.334Z,422.38
2019-02-10T08:12:32.384Z,421.90
2019-02-10T08:13:33.218Z,420.87
2019-02-10T08:14:32.306Z,422.55
2019-02-10T08:15:32.588Z,421.74
2019-02-10T08:16:32.276Z,421.43
2019-02-10T08:17:32.297Z,421.48
2019-02-10T08:18:32.266Z,422.37
2019-02-10T08:19:32.252Z,421.55
2019-02-10T08:20:32.244Z,421.26
2019-02-10T08:21:32.246Z,421.46
2019-02-10T08:22:32.240Z,423.26
2019-02-10T08:23:33.021Z,422.23
2019-02-10T08:24:32.236Z,423.68
2019-02-10T08:25:32.210Z,421.98
2019-02-10T08:26:32.199Z,423.00
2019-02-10T08:27:32.212Z,422.92
2019-02-10T08:28:32.160Z,421.28
2019-02-10T08:29:32.153Z,423.81
2019-02-10T08:30:32.152Z,422.09
2019-02-10T08:31:32.152Z,423.04
2019-02-10T08:32:32.140Z,421.74
2019-02-10T08:33:32.102Z,423.02
2019-02-10T08:34:32.091Z,421.97
2019-02-10T08:35:32.074Z,422.71
2019-02-10T08:36:32.088Z,422.47
2019-02-10T08:37:32.073Z,422.76
2019-02-10T08:38:32.057Z,423.60
2019-02-10T08:39:32.031Z,422.78
2019-02-10T08:40:32.014Z,422.48
2019-02-10T08:41:32.017Z,422.59
2019-02-10T08:42:32.053Z,424.48
2019-02-10T08:43:32.056Z,422.85
2019-02-10T08:44:31.994Z,422.44
2019-02-10T08:45:32.042Z,424.14
2019-02-10T08:46:31.959Z,422.43
2019-02-10T08:47:33.758Z,423.73
2019-02-10T08:48:32.504Z,422.43
2019-02-10T08:49:31.954Z,423.48
2019-02-10T08:50:31.947Z,422.63
2019-02-10T08:51:31.912Z,423.30
2019-02-10T08:52:31.907Z,424.39
2019-02-10T08:53:31.896Z,424.31
2019-02-10T08:54:39.629Z,423.66
2019-02-10T08:55:39.988Z,424.62
2019-02-10T08:56:40.223Z,424.11
2019-02-10T08:57:39.029Z,424.44
2019-02-10T08:58:42.332Z,423.17
2019-02-10T08:59:40.001Z,424.18
2019-02-10T09:00:39.080Z,423.42
2019-02-10T09:01:40.745Z,424.56
2019-02-10T09:02:39.981Z,424.47
2019-02-10T09:03:39.857Z,424.80
2019-02-10T09:04:39.003Z,424.00
2019-02-10T09:05:39.938Z,425.73
2019-02-10T09:06:40.155Z,424.80
2019-02-10T09:07:31.884Z,424.76
2019-02-10T09:08:31.927Z,425.69
2019-02-10T09:09:31.844Z,425.81
2019-02-10T09:10:31.730Z,424.78
2019-02-10T09:11:31.722Z,425.10
2019-02-10T09:12:31.714Z,425.97
2019-02-10T09:13:31.687Z,424.79
2019-02-10T09:14:31.711Z,425.34
2019-02-10T09:15:31.639Z,425.20
2019-02-10T09:16:31.658Z,424.26
2019-02-10T09:17:31.645Z,425.51
2019-02-10T09:18:31.636Z,424.88
2019-02-10T09:19:31.633Z,423.72
2019-02-10T09:20:31.625Z,425.14
2019-02-10T09:21:31.593Z,424.96
2019-02-10T09:22:31.653Z,424.26
2019-02-10T09:23:32.376Z,424.98
2019-02-10T09:24:31.558Z,425.10
2019-02-10T09:25:31.550Z,423.99
2019-02-10T09:26:31.563Z,424.57
2019-02-10T09:27:31.577Z,425.01
2019-02-10T09:28:31.515Z,425.46
2019-02-10T09:29:40.373Z,424.51
2019-02-10T09:30:39.527Z,426.14
2019-02-10T09:31:39.424Z,425.92
2019-02-10T09:32:39.533Z,425.97
2019-02-10T09:33:31.462Z,424.95
2019-02-10T09:34:31.528Z,426.26
2019-02-10T09:35:31.503Z,424.70
2019-02-10T09:36:31.442Z,425.22
2019-02-10T09:37:31.452Z,426.08
2019-02-10T09:38:31.442Z,424.22
2019-02-10T09:39:31.437Z,425.89
2019-02-10T09:40:31.403Z,424.73
2019-02-10T09:41:31.407Z,426.63
2019-02-10T09:42:31.390Z,425.29
2019-02-10T09:43:31.391Z,424.95
2019-02-10T09:44:40.399Z,425.26
2019-02-10T09:45:31.319Z,423.62
2019-02-10T09:46:31.363Z,426.91
2019-02-10T09:47:31.311Z,425.51
2019-02-10T09:48:31.360Z,425.10
2019-02-10T09:49:31.319Z,425.19
2019-02-10T09:50:31.282Z,426.34
2019-02-10T09:51:31.310Z,426.05
2019-02-10T09:52:31.265Z,425.07
2019-02-10T09:53:31.300Z,426.21
2019-02-10T09:54:31.385Z,426.78
2019-02-10T09:55:31.274Z,424.09
2019-02-10T09:56:31.229Z,426.23
2019-02-10T09:57:31.311Z,423.91
2019-02-10T09:58:31.234Z,425.33
2019-02-10T09:59:31.206Z,426.74
2019-02-10T10:00:31.198Z,423.92
2019-02-10T10:01:31.251Z,426.25
2019-02-10T10:02:31.189Z,424.90
2019-02-10T10:03:31.518Z,424.88
2019-02-10T10:04:31.222Z,424.83
2019-02-10T10:05:31.156Z,425.07
2019-02-10T10:06:31.144Z,425.79
2019-02-10T10:07:31.108Z,426.33
2019-02-10T10:08:31.979Z,426.82
2019-02-10T10:09:31.086Z,426.40
2019-02-10T10:10:31.104Z,425.16
2019-02-10T10:11:31.092Z,424.32
2019-02-10T10:12:31.056Z,426.20
2019-02-10T10:13:31.157Z,426.20
2019-02-10T10:14:31.220Z,426.86
2019-02-10T10:15:31.035Z,424.97
2019-02-10T10:16:31.018Z,425.98
2019-02-10T10:17:31.010Z,425.46
2019-02-10T10:18:31.042Z,423.84
2019-02-10T10:19:30.998Z,426.10
2019-02-10T10:20:31.473Z,426.11
2019-02-10T10:21:30.967Z,427.75
2019-02-10T10:22:38.973Z,425.98
2019-02-10T10:23:39.035Z,427.22
2019-02-10T10:24:38.976Z,427.48
2019-02-10T10:25:30.991Z,426.64
2019-02-10T10:26:31.011Z,424.26
2019-02-10T10:27:31.535Z,426.44
2019-02-10T10:28:30.885Z,426.15
2019-02-10T10:29:30.930Z,426.00
2019-02-10T10:30:31.009Z,426.68
2019-02-10T10:31:31.547Z,423.62
2019-02-10T10:32:30.837Z,426.22
2019-02-10T10:33:31.956Z,425.39
2019-02-10T10:34:30.829Z,425.87
2019-02-10T10:35:30.813Z,425.28
2019-02-10T10:36:30.814Z,425.89
2019-02-10T10:37:30.786Z,426.17
2019-02-10T10:38:30.791Z,423.39
2019-02-10T10:39:30.782Z,424.81
2019-02-10T10:40:30.810Z,426.74
2019-02-10T10:41:30.750Z,425.56
2019-02-10T10:42:30.721Z,425.76
2019-02-10T10:43:30.749Z,423.64
2019-02-10T10:44:30.720Z,424.28
2019-02-10T10:45:30.715Z,425.57
2019-02-10T10:46:30.690Z,425.28
2019-02-10T10:47:30.709Z,425.73
2019-02-10T10:48:30.701Z,425.68
2019-02-10T10:49:30.670Z,424.31
2019-02-10T10:50:30.644Z,425.24
2019-02-10T10:51:30.675Z,424.98
2019-02-10T10:52:30.622Z,423.45
2019-02-10T10:53:30.629Z,424.52
2019-02-10T10:54:30.645Z,424.18
2019-02-10T10:55:30.592Z,426.03
2019-02-10T10:56:30.614Z,425.52
2019-02-10T10:57:30.591Z,424.56
2019-02-10T10:58:30.565Z,425.69
2019-02-10T10:59:30.528Z,422.79
2019-02-10T11:00:30.538Z,426.56
2019-02-10T11:01:30.610Z,425.81
2019-02-10T11:02:31.041Z,423.89
2019-02-10T11:03:30.543Z,427.20
2019-02-10T11:04:30.533Z,425.86
2019-02-10T11:05:30.471Z,425.86
2019-02-10T11:06:30.498Z,426.12
2019-02-10T11:07:30.470Z,425.50
2019-02-10T11:08:30.472Z,426.26
2019-02-10T11:09:35.452Z,423.86
2019-02-10T11:10:31.453Z,426.27
2019-02-10T11:11:30.433Z,425.55
2019-02-10T11:12:30.413Z,426.06
2019-02-10T11:13:30.424Z,423.30
2019-02-10T11:14:30.416Z,425.72
2019-02-10T11:15:30.390Z,424.33
2019-02-10T11:16:30.365Z,426.71
2019-02-10T11:17:30.372Z,425.14
2019-02-10T11:18:30.365Z,424.45
2019-02-10T11:19:30.347Z,424.42
2019-02-10T11:20:30.339Z,425.93
2019-02-10T11:21:30.293Z,426.56
2019-02-10T11:22:30.300Z,426.29
2019-02-10T11:23:30.308Z,424.67
2019-02-10T11:24:30.274Z,426.11
2019-02-10T11:25:30.339Z,426.28
2019-02-10T11:26:30.333Z,426.40
2019-02-10T11:27:30.288Z,424.57
2019-02-10T11:28:30.597Z,424.39
2019-02-10T11:29:30.280Z,425.03
2019-02-10T11:30:30.210Z,426.81
2019-02-10T11:31:30.209Z,424.60
2019-02-10T11:32:30.232Z,424.00
2019-02-10T11:33:30.227Z,424.56
2019-02-10T11:34:30.172Z,421.99
2019-02-10T11:35:39.149Z,423.40
2019-02-10T11:37:46.733Z,422.45
2019-02-10T11:38:46.836Z,426.46
2019-02-10T11:39:46.894Z,425.68
2019-02-10T11:40:46.765Z,423.02
2019-02-10T11:41:47.492Z,426.50
2019-02-10T11:42:46.679Z,424.09
2019-02-10T11:43:46.782Z,425.52
2019-02-10T11:44:53.740Z,424.28
2019-02-10T11:45:46.699Z,426.79
2019-02-10T11:46:55.653Z,426.04
2019-02-10T11:47:55.066Z,424.26
2019-02-10T11:48:46.676Z,425.75
2019-02-10T11:49:46.719Z,424.74
2019-02-10T11:50:46.626Z,426.72
2019-02-10T11:51:46.627Z,424.99
2019-02-10T11:52:46.556Z,425.56
2019-02-10T11:53:47.227Z,425.25
2019-02-10T11:54:47.149Z,425.66
2019-02-10T11:55:46.513Z,424.76
2019-02-10T11:56:46.575Z,426.55
2019-02-10T11:57:47.187Z,426.09
2019-02-10T11:58:46.557Z,424.98
2019-02-10T11:59:46.499Z,425.20
2019-02-10T12:00:46.521Z,425.84
2019-02-10T12:01:47.155Z,426.03
2019-02-10T12:02:46.483Z,428.34
2019-02-10T12:03:46.479Z,425.92
2019-02-10T12:04:46.436Z,425.19
2019-02-10T12:05:47.192Z,422.96
2019-02-10T12:06:47.148Z,426.03
2019-02-10T12:07:46.452Z,427.28
2019-02-10T12:08:46.399Z,423.00
2019-02-10T12:09:51.502Z,426.26
2019-02-10T12:10:47.375Z,426.76
2019-02-10T12:11:46.523Z,424.45
2019-02-10T12:12:46.357Z,423.28
2019-02-10T12:13:53.564Z,423.65
2019-02-10T12:14:46.457Z,426.04
2019-02-10T12:15:46.339Z,422.83
2019-02-10T12:16:46.325Z,425.15
2019-02-10T12:17:46.305Z,424.48
2019-02-10T12:18:46.348Z,426.04
2019-02-10T12:19:46.292Z,425.86
2019-02-10T12:20:46.290Z,425.84
2019-02-10T12:21:46.283Z,425.67
2019-02-10T12:22:50.162Z,425.13
2019-02-10T12:23:46.242Z,424.79
2019-02-10T12:24:46.265Z,424.77
2019-02-10T12:25:54.397Z,423.93
2019-02-10T12:26:55.214Z,424.31
2019-02-10T12:30:12.445Z,421.57
2019-02-10T12:31:12.788Z,425.21
2019-02-10T12:32:12.503Z,426.44
2019-02-10T12:33:12.369Z,423.97
2019-02-10T12:34:13.216Z,424.19
2019-02-10T12:35:12.405Z,427.55
2019-02-10T12:36:12.342Z,424.65
2019-02-10T12:37:12.412Z,425.89
2019-02-10T12:38:12.351Z,425.07